sensor_id;sensor_type;location;lat;lon;timestamp;pressure;altitude;pressure_sealevel;temperature
64488;BMP280;50864;45.050;39.014;2023-09-19T00:00:20;101692.31;;;17.44
64488;BMP280;50864;45.050;39.014;2023-09-19T00:02:57;101689.72;;;17.39
64488;BMP280;50864;45.050;39.014;2023-09-19T00:05:25;101690.06;;;17.38
64488;BMP280;50864;45.050;39.014;2023-09-19T00:07:54;101692.62;;;17.34
64488;BMP280;50864;45.050;39.014;2023-09-19T00:10:21;101702.13;;;17.32
64488;BMP280;50864;45.050;39.014;2023-09-19T00:12:51;101700.03;;;17.29
64488;BMP280;50864;45.050;39.014;2023-09-19T00:15:19;101701.44;;;17.26
64488;BMP280;50864;45.050;39.014;2023-09-19T00:17:45;101717.50;;;17.23
64488;BMP280;50864;45.050;39.014;2023-09-19T00:20:13;101707.31;;;17.20
64488;BMP280;50864;45.050;39.014;2023-09-19T00:22:43;101704.19;;;17.12
64488;BMP280;50864;45.050;39.014;2023-09-19T00:25:10;101714.06;;;17.08
64488;BMP280;50864;45.050;39.014;2023-09-19T00:27:40;101714.16;;;17.03
64488;BMP280;50864;45.050;39.014;2023-09-19T00:30:09;101704.53;;;16.97
64488;BMP280;50864;45.050;39.014;2023-09-19T00:32:50;101703.34;;;16.90
64488;BMP280;50864;45.050;39.014;2023-09-19T00:35:21;101703.00;;;16.83
64488;BMP280;50864;45.050;39.014;2023-09-19T00:37:49;101695.00;;;16.78
64488;BMP280;50864;45.050;39.014;2023-09-19T00:40:16;101704.50;;;16.75
64488;BMP280;50864;45.050;39.014;2023-09-19T00:42:43;101708.59;;;16.73
64488;BMP280;50864;45.050;39.014;2023-09-19T00:45:12;101712.41;;;16.72
64488;BMP280;50864;45.050;39.014;2023-09-19T00:47:44;101704.63;;;16.70
64488;BMP280;50864;45.050;39.014;2023-09-19T00:50:12;101713.81;;;16.69
64488;BMP280;50864;45.050;39.014;2023-09-19T00:52:42;101712.81;;;16.65
64488;BMP280;50864;45.050;39.014;2023-09-19T00:55:09;101710.44;;;16.64
64488;BMP280;50864;45.050;39.014;2023-09-19T00:57:36;101712.63;;;16.61
64488;BMP280;50864;45.050;39.014;2023-09-19T01:00:05;101714.13;;;16.54
64488;BMP280;50864;45.050;39.014;2023-09-19T01:02:38;101712.31;;;16.49
64488;BMP280;50864;45.050;39.014;2023-09-19T01:05:04;101705.94;;;16.45
64488;BMP280;50864;45.050;39.014;2023-09-19T01:07:32;101709.25;;;16.42
64488;BMP280;50864;45.050;39.014;2023-09-19T01:10:06;101699.31;;;16.38
64488;BMP280;50864;45.050;39.014;2023-09-19T01:12:47;101704.22;;;16.36
64488;BMP280;50864;45.050;39.014;2023-09-19T01:18:21;101706.84;;;16.27
64488;BMP280;50864;45.050;39.014;2023-09-19T01:32:08;101713.03;;;16.00
64488;BMP280;50864;45.050;39.014;2023-09-19T01:34:49;101715.31;;;15.93
64488;BMP280;50864;45.050;39.014;2023-09-19T01:37:17;101712.09;;;15.91
64488;BMP280;50864;45.050;39.014;2023-09-19T01:39:51;101720.00;;;15.88
64488;BMP280;50864;45.050;39.014;2023-09-19T01:42:35;101717.56;;;15.86
64488;BMP280;50864;45.050;39.014;2023-09-19T01:45:11;101710.88;;;15.84
64488;BMP280;50864;45.050;39.014;2023-09-19T01:47:46;101704.78;;;15.78
64488;BMP280;50864;45.050;39.014;2023-09-19T01:50:32;101708.06;;;15.75
64488;BMP280;50864;45.050;39.014;2023-09-19T01:53:10;101706.25;;;15.71
64488;BMP280;50864;45.050;39.014;2023-09-19T01:55:43;101698.41;;;15.69
64488;BMP280;50864;45.050;39.014;2023-09-19T01:58:32;101706.53;;;15.69
64488;BMP280;50864;45.050;39.014;2023-09-19T02:01:01;101701.66;;;15.71
64488;BMP280;50864;45.050;39.014;2023-09-19T02:03:27;101701.66;;;15.71
64488;BMP280;50864;45.050;39.014;2023-09-19T02:05:54;101704.63;;;15.70
64488;BMP280;50864;45.050;39.014;2023-09-19T02:08:22;101704.63;;;15.70
64488;BMP280;50864;45.050;39.014;2023-09-19T02:10:52;101701.94;;;15.70
64488;BMP280;50864;45.050;39.014;2023-09-19T02:13:20;101702.72;;;15.70
64488;BMP280;50864;45.050;39.014;2023-09-19T02:15:46;101708.41;;;15.69
64488;BMP280;50864;45.050;39.014;2023-09-19T02:18:13;101712.53;;;15.66
64488;BMP280;50864;45.050;39.014;2023-09-19T02:20:41;101711.47;;;15.67
64488;BMP280;50864;45.050;39.014;2023-09-19T02:23:09;101708.25;;;15.65
64488;BMP280;50864;45.050;39.014;2023-09-19T02:25:35;101706.94;;;15.62
64488;BMP280;50864;45.050;39.014;2023-09-19T02:28:01;101711.59;;;15.57
64488;BMP280;50864;45.050;39.014;2023-09-19T02:30:29;101703.59;;;15.52
64488;BMP280;50864;45.050;39.014;2023-09-19T02:32:55;101714.16;;;15.48
64488;BMP280;50864;45.050;39.014;2023-09-19T02:35:21;101709.84;;;15.47
64488;BMP280;50864;45.050;39.014;2023-09-19T02:37:48;101702.34;;;15.44
64488;BMP280;50864;45.050;39.014;2023-09-19T02:40:15;101712.16;;;15.40
64488;BMP280;50864;45.050;39.014;2023-09-19T02:42:47;101702.53;;;15.34
64488;BMP280;50864;45.050;39.014;2023-09-19T02:45:16;101704.50;;;15.29
64488;BMP280;50864;45.050;39.014;2023-09-19T02:47:44;101701.88;;;15.24
64488;BMP280;50864;45.050;39.014;2023-09-19T02:50:10;101701.34;;;15.22
64488;BMP280;50864;45.050;39.014;2023-09-19T02:52:37;101705.41;;;15.19
64488;BMP280;50864;45.050;39.014;2023-09-19T02:55:03;101704.94;;;15.17
64488;BMP280;50864;45.050;39.014;2023-09-19T02:57:31;101715.22;;;15.15
64488;BMP280;50864;45.050;39.014;2023-09-19T02:59:59;101720.31;;;15.16
64488;BMP280;50864;45.050;39.014;2023-09-19T03:02:26;101719.22;;;15.18
64488;BMP280;50864;45.050;39.014;2023-09-19T03:04:54;101716.81;;;15.16
64488;BMP280;50864;45.050;39.014;2023-09-19T03:07:23;101717.59;;;15.16
64488;BMP280;50864;45.050;39.014;2023-09-19T03:09:50;101723.50;;;15.18
64488;BMP280;50864;45.050;39.014;2023-09-19T03:12:18;101725.41;;;15.18
64488;BMP280;50864;45.050;39.014;2023-09-19T03:14:45;101721.09;;;15.17
64488;BMP280;50864;45.050;39.014;2023-09-19T03:17:11;101724.69;;;15.12
64488;BMP280;50864;45.050;39.014;2023-09-19T03:19:37;101729.03;;;15.08
64488;BMP280;50864;45.050;39.014;2023-09-19T03:22:05;101733.62;;;15.08
64488;BMP280;50864;45.050;39.014;2023-09-19T03:24:31;101730.12;;;15.07
64488;BMP280;50864;45.050;39.014;2023-09-19T03:26:59;101730.12;;;15.07
64488;BMP280;50864;45.050;39.014;2023-09-19T03:29:26;101725.84;;;15.06
64488;BMP280;50864;45.050;39.014;2023-09-19T03:31:52;101726.34;;;15.08
64488;BMP280;50864;45.050;39.014;2023-09-19T03:34:20;101729.28;;;15.12
64488;BMP280;50864;45.050;39.014;2023-09-19T03:36:47;101729.13;;;15.22
64488;BMP280;50864;45.050;39.014;2023-09-19T03:39:13;101737.81;;;15.38
64488;BMP280;50864;45.050;39.014;2023-09-19T03:41:42;101741.13;;;15.48
64488;BMP280;50864;45.050;39.014;2023-09-19T03:44:08;101731.09;;;15.54
64488;BMP280;50864;45.050;39.014;2023-09-19T03:46:34;101735.09;;;15.56
64488;BMP280;50864;45.050;39.014;2023-09-19T03:49:02;101733.12;;;15.62
64488;BMP280;50864;45.050;39.014;2023-09-19T03:51:28;101743.38;;;15.79
64488;BMP280;50864;45.050;39.014;2023-09-19T03:53:55;101743.81;;;15.99
64488;BMP280;50864;45.050;39.014;2023-09-19T03:56:21;101737.75;;;16.21
64488;BMP280;50864;45.050;39.014;2023-09-19T03:58:48;101733.06;;;16.40
64488;BMP280;50864;45.050;39.014;2023-09-19T04:01:14;101741.25;;;16.62
64488;BMP280;50864;45.050;39.014;2023-09-19T04:03:42;101737.84;;;16.84
64488;BMP280;50864;45.050;39.014;2023-09-19T04:06:13;101732.78;;;17.05
64488;BMP280;50864;45.050;39.014;2023-09-19T04:08:39;101737.91;;;17.29
64488;BMP280;50864;45.050;39.014;2023-09-19T04:11:06;101731.38;;;17.52
64488;BMP280;50864;45.050;39.014;2023-09-19T04:13:32;101736.78;;;17.74
64488;BMP280;50864;45.050;39.014;2023-09-19T04:15:58;101738.50;;;17.92
64488;BMP280;50864;45.050;39.014;2023-09-19T04:18:25;101743.84;;;18.15
64488;BMP280;50864;45.050;39.014;2023-09-19T04:20:52;101732.28;;;18.40
64488;BMP280;50864;45.050;39.014;2023-09-19T04:23:18;101733.12;;;18.57
64488;BMP280;50864;45.050;39.014;2023-09-19T04:25:47;101747.53;;;18.75
64488;BMP280;50864;45.050;39.014;2023-09-19T04:28:15;101739.72;;;18.91
64488;BMP280;50864;45.050;39.014;2023-09-19T04:30:41;101745.78;;;19.13
64488;BMP280;50864;45.050;39.014;2023-09-19T04:33:07;101743.41;;;19.29
64488;BMP280;50864;45.050;39.014;2023-09-19T04:35:34;101744.47;;;19.54
64488;BMP280;50864;45.050;39.014;2023-09-19T04:38:00;101744.72;;;19.70
64488;BMP280;50864;45.050;39.014;2023-09-19T04:40:27;101745.63;;;19.91
64488;BMP280;50864;45.050;39.014;2023-09-19T04:42:53;101745.53;;;20.16
64488;BMP280;50864;45.050;39.014;2023-09-19T04:45:23;101743.06;;;20.24
64488;BMP280;50864;45.050;39.014;2023-09-19T04:47:50;101743.03;;;20.32
64488;BMP280;50864;45.050;39.014;2023-09-19T04:50:15;101739.97;;;20.34
64488;BMP280;50864;45.050;39.014;2023-09-19T04:52:43;101739.78;;;20.39
64488;BMP280;50864;45.050;39.014;2023-09-19T04:55:11;101732.41;;;20.60
64488;BMP280;50864;45.050;39.014;2023-09-19T04:57:46;101737.44;;;20.79
64488;BMP280;50864;45.050;39.014;2023-09-19T05:00:16;101746.78;;;21.10
64488;BMP280;50864;45.050;39.014;2023-09-19T05:02:46;101742.75;;;21.28
64488;BMP280;50864;45.050;39.014;2023-09-19T05:05:12;101743.34;;;21.46
64488;BMP280;50864;45.050;39.014;2023-09-19T05:07:42;101744.09;;;21.79
64488;BMP280;50864;45.050;39.014;2023-09-19T05:10:09;101744.31;;;21.87
64488;BMP280;50864;45.050;39.014;2023-09-19T05:12:40;101749.66;;;21.83
64488;BMP280;50864;45.050;39.014;2023-09-19T05:15:07;101743.72;;;22.05
64488;BMP280;50864;45.050;39.014;2023-09-19T05:17:33;101749.41;;;22.12
64488;BMP280;50864;45.050;39.014;2023-09-19T05:20:01;101751.78;;;22.38
64488;BMP280;50864;45.050;39.014;2023-09-19T05:22:41;101738.47;;;22.49
64488;BMP280;50864;45.050;39.014;2023-09-19T05:25:12;101741.06;;;22.85
64488;BMP280;50864;45.050;39.014;2023-09-19T05:27:45;101747.22;;;23.10
64488;BMP280;50864;45.050;39.014;2023-09-19T05:30:12;101742.13;;;22.96
64488;BMP280;50864;45.050;39.014;2023-09-19T05:32:40;101740.69;;;23.14
64488;BMP280;50864;45.050;39.014;2023-09-19T05:35:06;101739.69;;;23.50
64488;BMP280;50864;45.050;39.014;2023-09-19T05:37:35;101737.09;;;23.73
64488;BMP280;50864;45.050;39.014;2023-09-19T05:40:02;101732.97;;;23.79
64488;BMP280;50864;45.050;39.014;2023-09-19T05:42:32;101734.03;;;23.74
64488;BMP280;50864;45.050;39.014;2023-09-19T05:44:59;101736.19;;;23.84
64488;BMP280;50864;45.050;39.014;2023-09-19T05:47:25;101742.37;;;23.97
64488;BMP280;50864;45.050;39.014;2023-09-19T05:49:50;101736.97;;;24.00
64488;BMP280;50864;45.050;39.014;2023-09-19T05:52:18;101735.91;;;24.05
64488;BMP280;50864;45.050;39.014;2023-09-19T05:54:44;101737.06;;;24.04
64488;BMP280;50864;45.050;39.014;2023-09-19T05:57:10;101743.56;;;24.15
64488;BMP280;50864;45.050;39.014;2023-09-19T05:59:38;101745.28;;;24.23
64488;BMP280;50864;45.050;39.014;2023-09-19T06:02:05;101744.50;;;24.23
64488;BMP280;50864;45.050;39.014;2023-09-19T06:04:32;101746.47;;;24.22
64488;BMP280;50864;45.050;39.014;2023-09-19T06:06:58;101745.59;;;24.37
64488;BMP280;50864;45.050;39.014;2023-09-19T06:09:24;101742.94;;;24.60
64488;BMP280;50864;45.050;39.014;2023-09-19T06:11:50;101751.16;;;24.60
64488;BMP280;50864;45.050;39.014;2023-09-19T06:14:17;101747.78;;;24.66
64488;BMP280;50864;45.050;39.014;2023-09-19T06:16:43;101751.78;;;24.72
64488;BMP280;50864;45.050;39.014;2023-09-19T06:19:10;101752.22;;;24.94
64488;BMP280;50864;45.050;39.014;2023-09-19T06:21:36;101747.47;;;25.13
64488;BMP280;50864;45.050;39.014;2023-09-19T06:24:03;101755.28;;;25.34
64488;BMP280;50864;45.050;39.014;2023-09-19T06:26:29;101753.59;;;25.49
64488;BMP280;50864;45.050;39.014;2023-09-19T06:28:56;101753.31;;;25.57
64488;BMP280;50864;45.050;39.014;2023-09-19T06:31:22;101755.47;;;25.45
64488;BMP280;50864;45.050;39.014;2023-09-19T06:33:52;101754.38;;;25.49
64488;BMP280;50864;45.050;39.014;2023-09-19T06:36:18;101752.59;;;25.86
64488;BMP280;50864;45.050;39.014;2023-09-19T06:38:45;101750.28;;;25.88
64488;BMP280;50864;45.050;39.014;2023-09-19T06:41:11;101750.91;;;25.78
64488;BMP280;50864;45.050;39.014;2023-09-19T06:43:37;101758.22;;;25.71
64488;BMP280;50864;45.050;39.014;2023-09-19T06:46:05;101751.25;;;25.77
64488;BMP280;50864;45.050;39.014;2023-09-19T06:48:33;101750.47;;;25.76
64488;BMP280;50864;45.050;39.014;2023-09-19T06:50:59;101749.69;;;25.76
64488;BMP280;50864;45.050;39.014;2023-09-19T06:53:33;101753.69;;;25.82
64488;BMP280;50864;45.050;39.014;2023-09-19T06:56:02;101751.75;;;25.82
64488;BMP280;50864;45.050;39.014;2023-09-19T06:58:28;101746.28;;;25.82
64488;BMP280;50864;45.050;39.014;2023-09-19T07:00:54;101740.72;;;25.79
64488;BMP280;50864;45.050;39.014;2023-09-19T07:03:21;101743.94;;;25.84
64488;BMP280;50864;45.050;39.014;2023-09-19T07:05:48;101739.75;;;25.94
64488;BMP280;50864;45.050;39.014;2023-09-19T07:08:14;101740.56;;;25.94
64488;BMP280;50864;45.050;39.014;2023-09-19T07:10:42;101746.53;;;26.04
64488;BMP280;50864;45.050;39.014;2023-09-19T07:13:15;101747.78;;;26.06
64488;BMP280;50864;45.050;39.014;2023-09-19T07:15:43;101760.59;;;26.25
64488;BMP280;50864;45.050;39.014;2023-09-19T07:18:16;101741.25;;;26.18
64488;BMP280;50864;45.050;39.014;2023-09-19T07:20:43;101753.88;;;26.22
64488;BMP280;50864;45.050;39.014;2023-09-19T07:23:17;101745.22;;;26.20
64488;BMP280;50864;45.050;39.014;2023-09-19T07:25:44;101745.28;;;26.27
64488;BMP280;50864;45.050;39.014;2023-09-19T07:28:12;101742.06;;;26.18
64488;BMP280;50864;45.050;39.014;2023-09-19T07:30:38;101743.44;;;26.35
64488;BMP280;50864;45.050;39.014;2023-09-19T07:33:05;101744.72;;;26.44
64488;BMP280;50864;45.050;39.014;2023-09-19T07:35:32;101737.09;;;26.31
64488;BMP280;50864;45.050;39.014;2023-09-19T07:37:57;101734.00;;;26.32
64488;BMP280;50864;45.050;39.014;2023-09-19T07:40:24;101739.84;;;26.31
64488;BMP280;50864;45.050;39.014;2023-09-19T07:42:52;101735.41;;;26.19
64488;BMP280;50864;45.050;39.014;2023-09-19T07:45:18;101740.38;;;26.10
64488;BMP280;50864;45.050;39.014;2023-09-19T07:47:49;101732.47;;;26.05
64488;BMP280;50864;45.050;39.014;2023-09-19T07:50:16;101735.41;;;26.19
64488;BMP280;50864;45.050;39.014;2023-09-19T07:52:45;101733.44;;;26.20
64488;BMP280;50864;45.050;39.014;2023-09-19T07:55:11;101729.13;;;26.19
64488;BMP280;50864;45.050;39.014;2023-09-19T07:57:43;101723.91;;;26.40
64488;BMP280;50864;45.050;39.014;2023-09-19T08:00:10;101712.66;;;26.55
64488;BMP280;50864;45.050;39.014;2023-09-19T08:02:37;101715.91;;;26.28
64488;BMP280;50864;45.050;39.014;2023-09-19T08:05:11;101716.66;;;26.25
64488;BMP280;50864;45.050;39.014;2023-09-19T08:07:40;101705.13;;;26.45
64488;BMP280;50864;45.050;39.014;2023-09-19T08:10:08;101707.09;;;26.45
64488;BMP280;50864;45.050;39.014;2023-09-19T08:12:37;101708.00;;;26.23
64488;BMP280;50864;45.050;39.014;2023-09-19T08:15:03;101705.09;;;26.09
64488;BMP280;50864;45.050;39.014;2023-09-19T08:17:35;101700.00;;;26.11
64488;BMP280;50864;45.050;39.014;2023-09-19T08:20:01;101691.97;;;26.25
64488;BMP280;50864;45.050;39.014;2023-09-19T08:22:28;101702.84;;;26.18
64488;BMP280;50864;45.050;39.014;2023-09-19T08:24:54;101697.81;;;25.93
64488;BMP280;50864;45.050;39.014;2023-09-19T08:27:21;101690.69;;;25.85
64488;BMP280;50864;45.050;39.014;2023-09-19T08:29:47;101693.12;;;26.24
64488;BMP280;50864;45.050;39.014;2023-09-19T08:32:16;101686.97;;;26.34
64488;BMP280;50864;45.050;39.014;2023-09-19T08:34:41;101671.84;;;26.14
64488;BMP280;50864;45.050;39.014;2023-09-19T08:37:07;101679.41;;;26.27
64488;BMP280;50864;45.050;39.014;2023-09-19T08:39:33;101689.28;;;26.32
64488;BMP280;50864;45.050;39.014;2023-09-19T08:42:02;101664.09;;;26.23
64488;BMP280;50864;45.050;39.014;2023-09-19T08:44:29;101672.91;;;26.39
64488;BMP280;50864;45.050;39.014;2023-09-19T08:47:21;101682.34;;;26.41
64488;BMP280;50864;45.050;39.014;2023-09-19T08:50:04;101669.66;;;26.30
64488;BMP280;50864;45.050;39.014;2023-09-19T08:52:43;101672.50;;;26.37
64488;BMP280;50864;45.050;39.014;2023-09-19T08:55:13;101665.22;;;26.51
64488;BMP280;50864;45.050;39.014;2023-09-19T08:57:49;101666.72;;;26.49
64488;BMP280;50864;45.050;39.014;2023-09-19T09:00:16;101655.69;;;26.42
64488;BMP280;50864;45.050;39.014;2023-09-19T09:02:47;101659.47;;;26.30
64488;BMP280;50864;45.050;39.014;2023-09-19T09:05:16;101653.53;;;26.25
64488;BMP280;50864;45.050;39.014;2023-09-19T09:07:49;101661.41;;;26.30
64488;BMP280;50864;45.050;39.014;2023-09-19T09:10:22;101659.91;;;26.36
64488;BMP280;50864;45.050;39.014;2023-09-19T09:12:51;101653.28;;;26.40
64488;BMP280;50864;45.050;39.014;2023-09-19T09:15:19;101650.16;;;26.38
64488;BMP280;50864;45.050;39.014;2023-09-19T09:17:50;101637.66;;;26.44
64488;BMP280;50864;45.050;39.014;2023-09-19T09:20:17;101638.72;;;26.73
64488;BMP280;50864;45.050;39.014;2023-09-19T09:22:55;101626.69;;;26.88
64488;BMP280;50864;45.050;39.014;2023-09-19T09:25:22;101624.69;;;26.85
64488;BMP280;50864;45.050;39.014;2023-09-19T09:28:01;101633.37;;;26.94
64488;BMP280;50864;45.050;39.014;2023-09-19T09:30:35;101622.47;;;27.01
64488;BMP280;50864;45.050;39.014;2023-09-19T09:33:12;101611.47;;;27.01
64488;BMP280;50864;45.050;39.014;2023-09-19T09:35:58;101615.81;;;27.02
64488;BMP280;50864;45.050;39.014;2023-09-19T09:38:46;101609.28;;;27.25
64488;BMP280;50864;45.050;39.014;2023-09-19T09:41:15;101613.25;;;27.38
64488;BMP280;50864;45.050;39.014;2023-09-19T09:43:53;101602.28;;;27.41
64488;BMP280;50864;45.050;39.014;2023-09-19T09:46:21;101596.13;;;27.69
64488;BMP280;50864;45.050;39.014;2023-09-19T09:49:01;101601.25;;;27.70
64488;BMP280;50864;45.050;39.014;2023-09-19T09:52:06;101593.75;;;27.64
64488;BMP280;50864;45.050;39.014;2023-09-19T09:54:34;101598.00;;;27.51
64488;BMP280;50864;45.050;39.014;2023-09-19T09:57:06;101581.16;;;27.52
64488;BMP280;50864;45.050;39.014;2023-09-19T10:02:21;101586.69;;;27.56
64488;BMP280;50864;45.050;39.014;2023-09-19T10:04:52;101590.50;;;27.37
64488;BMP280;50864;45.050;39.014;2023-09-19T10:07:39;101590.84;;;27.32
64488;BMP280;50864;45.050;39.014;2023-09-19T10:10:08;101591.31;;;27.48
64488;BMP280;50864;45.050;39.014;2023-09-19T10:12:48;101591.38;;;27.62
64488;BMP280;50864;45.050;39.014;2023-09-19T10:15:16;101584.25;;;27.51
64488;BMP280;50864;45.050;39.014;2023-09-19T10:17:44;101572.47;;;27.50
64488;BMP280;50864;45.050;39.014;2023-09-19T10:20:18;101569.75;;;27.54
64488;BMP280;50864;45.050;39.014;2023-09-19T10:22:49;101570.88;;;27.42
64488;BMP280;50864;45.050;39.014;2023-09-19T10:25:29;101555.19;;;27.43
64488;BMP280;50864;45.050;39.014;2023-09-19T10:27:57;101555.22;;;27.50
64488;BMP280;50864;45.050;39.014;2023-09-19T10:30:29;101560.69;;;27.57
64488;BMP280;50864;45.050;39.014;2023-09-19T10:33:00;101546.59;;;27.55
64488;BMP280;50864;45.050;39.014;2023-09-19T10:35:27;101545.06;;;27.68
64488;BMP280;50864;45.050;39.014;2023-09-19T10:37:55;101548.56;;;27.61
64488;BMP280;50864;45.050;39.014;2023-09-19T10:40:22;101546.59;;;27.55
64488;BMP280;50864;45.050;39.014;2023-09-19T10:43:03;101537.91;;;27.56
64488;BMP280;50864;45.050;39.014;2023-09-19T10:45:35;101535.25;;;27.74
64488;BMP280;50864;45.050;39.014;2023-09-19T10:48:04;101535.25;;;27.81
64488;BMP280;50864;45.050;39.014;2023-09-19T10:50:43;101535.31;;;28.02
64488;BMP280;50864;45.050;39.014;2023-09-19T10:53:12;101522.31;;;28.06
64488;BMP280;50864;45.050;39.014;2023-09-19T10:55:39;101505.00;;;28.09
64488;BMP280;50864;45.050;39.014;2023-09-19T10:58:06;101527.84;;;28.06
64488;BMP280;50864;45.050;39.014;2023-09-19T11:00:58;101516.44;;;28.11
64488;BMP280;50864;45.050;39.014;2023-09-19T11:03:35;101522.72;;;28.22
64488;BMP280;50864;45.050;39.014;2023-09-19T11:06:19;101516.81;;;28.24
64488;BMP280;50864;45.050;39.014;2023-09-19T11:09:04;101508.97;;;28.19
64488;BMP280;50864;45.050;39.014;2023-09-19T11:11:39;101509.34;;;28.24
64488;BMP280;50864;45.050;39.014;2023-09-19T11:30:48;101484.19;;;28.43
64488;BMP280;50864;45.050;39.014;2023-09-19T11:33:28;101479.06;;;28.42
64488;BMP280;50864;45.050;39.014;2023-09-19T11:36:11;101473.53;;;28.52
64488;BMP280;50864;45.050;39.014;2023-09-19T11:46:31;101467.22;;;28.48
64488;BMP280;50864;45.050;39.014;2023-09-19T11:49:09;101456.22;;;28.52
64488;BMP280;50864;45.050;39.014;2023-09-19T11:51:42;101448.75;;;28.52
64488;BMP280;50864;45.050;39.014;2023-09-19T11:54:14;101460.94;;;28.51
64488;BMP280;50864;45.050;39.014;2023-09-19T11:56:51;101443.25;;;28.45
64488;BMP280;50864;45.050;39.014;2023-09-19T11:59:20;101439.31;;;28.39
64488;BMP280;50864;45.050;39.014;2023-09-19T12:01:52;101436.59;;;28.25
64488;BMP280;50864;45.050;39.014;2023-09-19T12:04:36;101437.37;;;28.33
64488;BMP280;50864;45.050;39.014;2023-09-19T12:07:08;101443.66;;;28.40
64488;BMP280;50864;45.050;39.014;2023-09-19T12:09:45;101437.75;;;28.45
64488;BMP280;50864;45.050;39.014;2023-09-19T12:12:25;101446.38;;;28.58
64488;BMP280;50864;45.050;39.014;2023-09-19T12:14:55;101431.00;;;28.61
64488;BMP280;50864;45.050;39.014;2023-09-19T12:17:38;101434.53;;;28.61
64488;BMP280;50864;45.050;39.014;2023-09-19T12:20:05;101434.19;;;28.59
64488;BMP280;50864;45.050;39.014;2023-09-19T12:25:10;101434.13;;;28.63
64488;BMP280;50864;45.050;39.014;2023-09-19T12:27:44;101434.94;;;28.60
64488;BMP280;50864;45.050;39.014;2023-09-19T12:30:13;101427.09;;;28.55
64488;BMP280;50864;45.050;39.014;2023-09-19T12:32:48;101425.50;;;28.57
64488;BMP280;50864;45.050;39.014;2023-09-19T12:35:29;101426.31;;;28.50
64488;BMP280;50864;45.050;39.014;2023-09-19T12:37:56;101423.16;;;28.52
64488;BMP280;50864;45.050;39.014;2023-09-19T12:40:22;101415.31;;;28.50
64488;BMP280;50864;45.050;39.014;2023-09-19T12:42:54;101415.31;;;28.50
64488;BMP280;50864;45.050;39.014;2023-09-19T12:45:31;101414.53;;;28.50
64488;BMP280;50864;45.050;39.014;2023-09-19T12:51:08;101417.66;;;28.48
64488;BMP280;50864;45.050;39.014;2023-09-19T12:53:38;101417.66;;;28.52
64488;BMP280;50864;45.050;39.014;2023-09-19T12:56:13;101405.50;;;28.39
64488;BMP280;50864;45.050;39.014;2023-09-19T12:58:55;101401.59;;;28.33
64488;BMP280;50864;45.050;39.014;2023-09-19T13:01:23;101407.06;;;28.36
64488;BMP280;50864;45.050;39.014;2023-09-19T13:04:18;101399.59;;;28.44
64488;BMP280;50864;45.050;39.014;2023-09-19T13:09:12;101395.31;;;28.32
64488;BMP280;50864;45.050;39.014;2023-09-19T13:11:41;101384.66;;;28.27
64488;BMP280;50864;45.050;39.014;2023-09-19T13:14:18;101388.63;;;28.23
64488;BMP280;50864;45.050;39.014;2023-09-19T13:17:01;101382.31;;;28.22
64488;BMP280;50864;45.050;39.014;2023-09-19T13:19:46;101381.53;;;28.22
64488;BMP280;50864;45.050;39.014;2023-09-19T13:25:12;101380.75;;;28.25
64488;BMP280;50864;45.050;39.014;2023-09-19T13:27:45;101377.62;;;28.26
64488;BMP280;50864;45.050;39.014;2023-09-19T13:30:12;101386.69;;;28.20
64488;BMP280;50864;45.050;39.014;2023-09-19T13:32:39;101381.56;;;28.11
64488;BMP280;50864;45.050;39.014;2023-09-19T13:35:07;101367.41;;;28.09
64488;BMP280;50864;45.050;39.014;2023-09-19T13:37:38;101372.91;;;28.09
64488;BMP280;50864;45.050;39.014;2023-09-19T13:40:11;101374.50;;;28.17
64488;BMP280;50864;45.050;39.014;2023-09-19T13:42:38;101378.06;;;28.07
64488;BMP280;50864;45.050;39.014;2023-09-19T13:45:06;101374.88;;;28.12
64488;BMP280;50864;45.050;39.014;2023-09-19T13:47:32;101369.78;;;28.14
64488;BMP280;50864;45.050;39.014;2023-09-19T13:50:00;101371.31;;;28.15
64488;BMP280;50864;45.050;39.014;2023-09-19T13:52:26;101362.28;;;28.15
64488;BMP280;50864;45.050;39.014;2023-09-19T13:54:55;101370.53;;;28.18
64488;BMP280;50864;45.050;39.014;2023-09-19T13:57:24;101370.94;;;28.17
64488;BMP280;50864;45.050;39.014;2023-09-19T13:59:51;101359.53;;;28.18
64488;BMP280;50864;45.050;39.014;2023-09-19T14:02:17;101362.69;;;28.17
64488;BMP280;50864;45.050;39.014;2023-09-19T14:04:49;101359.94;;;28.20
64488;BMP280;50864;45.050;39.014;2023-09-19T14:07:16;101363.06;;;28.19
64488;BMP280;50864;45.050;39.014;2023-09-19T14:09:43;101362.25;;;28.22
64488;BMP280;50864;45.050;39.014;2023-09-19T14:12:09;101359.94;;;28.20
64488;BMP280;50864;45.050;39.014;2023-09-19T14:14:36;101358.72;;;28.21
64488;BMP280;50864;45.050;39.014;2023-09-19T14:17:03;101354.00;;;28.25
64488;BMP280;50864;45.050;39.014;2023-09-19T14:19:30;101357.16;;;28.31
64488;BMP280;50864;45.050;39.014;2023-09-19T14:21:56;101353.59;;;28.30
64488;BMP280;50864;45.050;39.014;2023-09-19T14:24:22;101357.16;;;28.27
64488;BMP280;50864;45.050;39.014;2023-09-19T14:26:51;101361.09;;;28.23
64488;BMP280;50864;45.050;39.014;2023-09-19T14:29:17;101361.12;;;28.19
64488;BMP280;50864;45.050;39.014;2023-09-19T14:31:43;101354.44;;;28.17
64488;BMP280;50864;45.050;39.014;2023-09-19T14:34:09;101351.31;;;28.08
64488;BMP280;50864;45.050;39.014;2023-09-19T14:36:36;101348.56;;;28.04
64488;BMP280;50864;45.050;39.014;2023-09-19T14:39:02;101342.25;;;28.00
64488;BMP280;50864;45.050;39.014;2023-09-19T14:41:29;101351.31;;;27.94
64488;BMP280;50864;45.050;39.014;2023-09-19T14:43:57;101342.28;;;27.90
64488;BMP280;50864;45.050;39.014;2023-09-19T14:46:23;101341.50;;;27.82
64488;BMP280;50864;45.050;39.014;2023-09-19T14:48:53;101350.16;;;27.77
64488;BMP280;50864;45.050;39.014;2023-09-19T14:51:19;101344.63;;;27.70